Time;durP1;ratioP1;P1;durP2;ratioP2;P2;SDS_P1;SDS_P2;PMS_P1;PMS_P2;Temp;Humidity;BMP_temperature;BMP_pressure;BME280_temperature;BME280_humidity;BME280_pressure;Samples;Min_cycle;Max_cycle;Signal;HPM_P1;HPM_P2
2021/06/23 00:01:33;;;;;;;19.20;12.13;;;;;;;26.84;76.55;99841.09;1817234;77;20927;-85
2021/06/23 00:03:59;;;;;;;17.25;11.48;;;;;;;26.84;76.55;99841.09;1816592;77;20860;-85
2021/06/23 00:06:25;;;;;;;17.85;11.83;;;;;;;26.76;76.08;99848.97;1830262;77;20919;-81
2021/06/23 00:08:51;;;;;;;18.02;10.95;;;;;;;26.75;76.01;99842.72;1821161;77;21137;-86
2021/06/23 00:11:17;;;;;;;18.77;12.00;;;;;;;26.87;75.52;99843.25;1818313;77;21028;-86
2021/06/23 00:13:42;;;;;;;18.33;11.87;;;;;;;26.84;76.34;99856.55;1817716;77;28304;-86
2021/06/23 00:16:09;;;;;;;18.73;11.12;;;;;;;27.09;75.46;99861.13;1801670;77;20868;-86
2021/06/23 00:18:35;;;;;;;20.00;11.20;;;;;;;26.93;75.62;99863.59;1819285;77;21054;-86
2021/06/23 00:21:00;;;;;;;17.95;11.03;;;;;;;26.92;74.82;99861.95;1812772;77;21672;-85
2021/06/23 00:23:26;;;;;;;18.73;10.53;;;;;;;26.86;75.10;99866.03;1820539;77;21158;-85
2021/06/23 00:25:52;;;;;;;19.80;11.20;;;;;;;26.82;75.30;99862.23;1801797;77;20946;-85
2021/06/23 00:28:18;;;;;;;15.75;10.95;;;;;;;26.71;75.78;99861.97;1807006;77;22082;-85
2021/06/23 00:30:43;;;;;;;15.00;9.80;;;;;;;26.73;75.35;99859.80;1810872;77;20935;-84
2021/06/23 00:33:14;;;;;;;18.87;12.20;;;;;;;26.96;74.76;99857.63;1824299;77;21941;-85
2021/06/23 00:35:41;;;;;;;16.57;11.63;;;;;;;26.82;76.20;99866.30;1821421;77;21133;-86
2021/06/23 00:38:07;;;;;;;19.00;12.75;;;;;;;27.10;74.70;99876.31;1825717;77;20994;-85
2021/06/23 00:40:34;;;;;;;19.32;13.08;;;;;;;26.97;75.14;99874.14;1819250;77;20919;-84
2021/06/23 00:43:00;;;;;;;19.98;13.62;;;;;;;26.84;75.47;99881.73;1805611;77;21254;-85
2021/06/23 00:45:25;;;;;;;20.68;13.53;;;;;;;27.03;74.82;99889.31;1829243;77;21389;-85
2021/06/23 00:47:53;;;;;;;22.90;13.90;;;;;;;27.24;73.76;99884.69;1791621;77;20931;-84
2021/06/23 00:50:19;;;;;;;22.07;13.83;;;;;;;27.14;74.22;99880.63;1807334;77;21510;-86
2021/06/23 00:52:45;;;;;;;19.73;14.65;;;;;;;27.08;74.71;99878.48;1807313;77;21013;-86
2021/06/23 00:55:20;;;;;;;20.60;15.20;;;;;;;27.14;74.40;99881.43;1811017;77;20942;-86
2021/06/23 00:57:40;;;;;;;19.95;14.70;;;;;;;27.05;74.58;99879.03;1833209;77;20955;-86
2021/06/23 01:00:07;;;;;;;22.80;15.28;;;;;;;26.88;75.47;99882.02;1806874;77;20927;-86
2021/06/23 01:02:33;;;;;;;25.55;15.43;;;;;;;27.15;74.43;99877.64;1822840;77;21073;-86
2021/06/23 01:04:58;;;;;;;24.60;16.02;;;;;;;26.76;75.93;99882.28;1804048;77;20963;-86
2021/06/23 01:07:25;;;;;;;21.07;15.23;;;;;;;26.56;77.34;99887.66;1806819;77;21022;-87
2021/06/23 01:09:54;;;;;;;22.63;16.00;;;;;;;26.54;76.64;99884.38;1807573;77;21119;-87
2021/06/23 01:12:28;;;;;;;22.55;15.58;;;;;;;26.64;76.46;99887.12;1808342;78;21067;-86
2021/06/23 01:14:59;;;;;;;20.62;14.87;;;;;;;26.76;76.07;99884.19;1824943;77;21018;-85
2021/06/23 01:17:29;;;;;;;22.27;15.65;;;;;;;26.97;75.09;99884.98;1807547;77;21462;-85
2021/06/23 01:20:11;;;;;;;25.25;16.73;;;;;;;27.01;75.03;99889.58;1793695;77;21060;-85
2021/06/23 01:22:42;;;;;;;25.20;15.13;;;;;;;26.98;74.78;99888.77;1816542;77;20980;-85
2021/06/23 01:25:12;;;;;;;26.05;16.57;;;;;;;27.02;74.88;99893.13;1829246;77;21846;-84
2021/06/23 01:27:39;;;;;;;23.70;15.75;;;;;;;26.90;75.18;99898.01;1813287;77;21043;-85
2021/06/23 01:30:06;;;;;;;23.83;16.70;;;;;;;26.93;74.94;99897.47;1814901;77;21062;-84
2021/06/23 01:32:32;;;;;;;21.07;16.07;;;;;;;26.88;75.04;99903.70;1823993;77;21026;-85
2021/06/23 01:34:58;;;;;;;23.22;15.90;;;;;;;26.90;74.89;99914.27;1813279;77;21007;-86
2021/06/23 01:37:23;;;;;;;24.15;16.15;;;;;;;27.12;74.16;99917.50;1801283;77;21050;-85
2021/06/23 01:39:49;;;;;;;26.02;16.70;;;;;;;27.00;74.09;99930.51;1807757;77;20891;-86
2021/06/23 01:42:15;;;;;;;23.57;16.55;;;;;;;26.66;75.25;99931.02;1801754;77;21169;-85
2021/06/23 01:44:41;;;;;;;24.80;16.75;;;;;;;26.51;75.77;99927.17;1820338;77;20963;-85
2021/06/23 01:47:06;;;;;;;24.65;16.90;;;;;;;26.78;74.89;99938.91;1820123;77;20952;-85
2021/06/23 01:49:32;;;;;;;24.23;16.48;;;;;;;26.76;74.74;99939.17;1803169;77;20938;-85
2021/06/23 01:51:59;;;;;;;25.15;16.65;;;;;;;26.68;75.19;99931.58;1830305;77;20852;-86
2021/06/23 01:54:25;;;;;;;24.53;17.20;;;;;;;26.27;76.57;99917.91;1792659;77;21042;-85
2021/06/23 01:56:50;;;;;;;21.33;15.23;;;;;;;26.27;76.57;99917.91;1807665;77;21817;-86
2021/06/23 01:59:16;;;;;;;23.67;17.32;;;;;;;26.38;76.25;99929.03;1819211;77;21119;-85
2021/06/23 02:02:03;;;;;;;23.32;18.60;;;;;;;26.35;77.00;99933.63;1804601;77;20911;-86
2021/06/23 02:04:53;;;;;;;27.50;17.87;;;;;;;26.30;77.01;99940.39;1823533;77;21011;-85
2021/06/23 02:07:50;;;;;;;24.05;17.95;;;;;;;26.27;76.98;99939.56;1803070;78;21040;-85
2021/06/23 02:10:44;;;;;;;26.02;19.87;;;;;;;26.29;76.79;99945.55;1793694;77;21501;-85
2021/06/23 02:13:58;;;;;;;26.45;19.17;;;;;;;26.06;77.53;99940.84;1813113;77;21138;-85
2021/06/23 02:16:24;;;;;;;25.32;18.00;;;;;;;26.15;77.34;99932.50;1815587;77;22317;-86
2021/06/23 02:18:50;;;;;;;27.95;19.40;;;;;;;26.24;77.31;99931.98;1805847;77;20892;-87
2021/06/23 02:21:16;;;;;;;26.10;19.02;;;;;;;26.38;76.76;99935.80;1824532;77;21037;-86
2021/06/23 02:23:43;;;;;;;25.35;18.82;;;;;;;26.30;77.40;99934.97;1825908;77;21002;-86
2021/06/23 02:26:08;;;;;;;25.08;18.67;;;;;;;26.43;76.92;99942.60;1819336;77;21280;-84
2021/06/23 02:28:34;;;;;;;27.73;18.55;;;;;;;26.37;77.04;99945.54;1820508;77;20868;-85
2021/06/23 02:31:00;;;;;;;27.58;19.15;;;;;;;26.31;77.32;99948.80;1808654;77;20887;-86
2021/06/23 02:33:26;;;;;;;26.15;19.52;;;;;;;26.51;76.89;99948.84;1812442;77;20871;-86
2021/06/23 02:35:54;;;;;;;24.80;18.30;;;;;;;26.55;76.42;99955.08;1801691;77;20852;-86
2021/06/23 02:38:19;;;;;;;22.37;17.75;;;;;;;26.71;76.23;99955.95;1801915;77;21490;-85
2021/06/23 02:40:45;;;;;;;24.90;18.02;;;;;;;26.76;75.71;99962.20;1825002;77;20871;-86
2021/06/23 02:43:11;;;;;;;25.60;19.55;;;;;;;26.68;76.13;99973.56;1822123;77;20896;-86
2021/06/23 02:45:36;;;;;;;25.05;18.55;;;;;;;26.71;75.49;99975.74;1809390;78;20912;-86
2021/06/23 02:48:02;;;;;;;26.17;18.07;;;;;;;26.61;75.92;99975.67;1812396;77;21248;-86
2021/06/23 02:50:31;;;;;;;25.37;18.37;;;;;;;26.64;76.16;99969.73;1817158;77;28017;-86
2021/06/23 02:52:56;;;;;;;26.30;18.00;;;;;;;26.60;76.30;99972.16;1821125;77;21038;-86
2021/06/23 02:55:22;;;;;;;23.55;16.93;;;;;;;26.50;77.42;99968.87;1812966;77;20895;-86
2021/06/23 02:57:48;;;;;;;24.07;18.02;;;;;;;26.61;76.01;99966.20;1818738;77;20899;-86
2021/06/23 03:00:15;;;;;;;22.00;17.93;;;;;;;26.67;75.82;99961.09;1803305;77;21768;-86
2021/06/23 03:02:41;;;;;;;;;;;;;;;26.92;75.21;99967.64;1822992;77;21493;-86
2021/06/23 03:05:08;;;;;;;23.80;16.97;;;;;;;26.86;75.26;99972.23;1809360;77;25551;-86
2021/06/23 03:07:33;;;;;;;21.55;17.30;;;;;;;26.80;75.19;99986.84;1801644;77;21153;-86
2021/06/23 03:10:09;;;;;;;29.32;17.52;;;;;;;26.98;74.51;99978.76;1807168;77;20931;-86
2021/06/23 03:12:35;;;;;;;21.45;17.25;;;;;;;26.95;74.45;99991.48;1825262;77;21069;-86
2021/06/23 03:15:01;;;;;;;23.35;16.65;;;;;;;26.75;74.71;99997.13;1829683;77;20927;-87
2021/06/23 03:17:27;;;;;;;20.95;16.48;;;;;;;26.85;74.31;100002.58;1809390;77;20998;-86
2021/06/23 03:19:53;;;;;;;23.40;17.57;;;;;;;26.76;74.29;100004.19;1824593;77;20900;-86
2021/06/23 03:22:19;;;;;;;23.13;17.27;;;;;;;26.75;74.37;100014.74;1812852;77;21066;-86
2021/06/23 03:24:44;;;;;;;21.37;17.23;;;;;;;26.79;73.95;100020.46;1830693;77;22532;-86
2021/06/23 03:27:10;;;;;;;19.45;16.07;;;;;;;26.79;73.49;100012.33;1813025;77;22024;-86
2021/06/23 03:29:36;;;;;;;21.87;15.60;;;;;;;27.00;73.21;100013.17;1818558;77;21162;-86
2021/06/23 03:32:07;;;;;;;21.15;17.30;;;;;;;27.26;72.54;100006.42;1804666;77;21489;-86
2021/06/23 03:34:32;;;;;;;21.10;17.02;;;;;;;27.31;72.14;100014.55;1820435;77;21004;-86
2021/06/23 03:36:58;;;;;;;25.08;17.62;;;;;;;27.17;72.54;100025.92;1824819;77;20975;-87
2021/06/23 03:39:24;;;;;;;20.57;16.73;;;;;;;27.01;73.12;100024.29;1832404;77;21025;-86
2021/06/23 03:41:50;;;;;;;21.75;17.15;;;;;;;27.10;73.15;100023.20;1819351;77;21768;-86
2021/06/23 03:44:16;;;;;;;22.87;17.10;;;;;;;27.18;73.15;100032.17;1826010;77;20892;-86
2021/06/23 03:46:41;;;;;;;23.52;17.37;;;;;;;27.32;72.40;100037.91;1824750;77;21083;-86
2021/06/23 03:49:07;;;;;;;19.90;16.42;;;;;;;27.65;71.16;100033.02;1808857;77;20986;-83
2021/06/23 03:51:33;;;;;;;22.58;16.60;;;;;;;27.51;71.19;100033.55;1801615;77;21243;-84
2021/06/23 03:53:58;;;;;;;20.75;15.25;;;;;;;27.66;70.28;100030.58;1813200;77;20943;-86
2021/06/23 03:56:24;;;;;;;19.85;14.65;;;;;;;27.66;69.80;100040.08;1802603;77;20947;-86
2021/06/23 03:58:50;;;;;;;19.82;15.90;;;;;;;27.66;69.71;100050.93;1830771;77;20860;-86
2021/06/23 04:01:16;;;;;;;20.68;16.32;;;;;;;27.45;70.47;100060.41;1833408;77;20876;-86
2021/06/23 04:03:41;;;;;;;18.52;14.85;;;;;;;27.41;71.11;100068.83;1831171;77;21141;-86
2021/06/23 04:06:07;;;;;;;22.13;15.78;;;;;;;27.30;71.54;100059.01;1802156;77;21293;-85
2021/06/23 04:08:33;;;;;;;21.75;16.30;;;;;;;27.50;71.33;100061.78;1816008;77;20899;-84
2021/06/23 04:10:59;;;;;;;20.17;15.10;;;;;;;27.63;71.21;100062.33;1826276;77;21031;-86
2021/06/23 04:13:25;;;;;;;21.05;15.88;;;;;;;27.38;71.55;100057.17;1832621;77;20880;-86
2021/06/23 04:15:51;;;;;;;21.65;15.32;;;;;;;27.17;72.71;100066.58;1834151;78;22214;-85
2021/06/23 04:18:16;;;;;;;20.37;15.60;;;;;;;27.30;72.20;100068.50;1804669;77;20824;-85
2021/06/23 04:20:42;;;;;;;21.02;15.53;;;;;;;27.37;71.93;100076.67;1804998;77;20974;-86
2021/06/23 04:23:08;;;;;;;24.65;16.42;;;;;;;27.52;71.78;100075.88;1821014;77;21162;-86
2021/06/23 04:25:33;;;;;;;20.75;15.58;;;;;;;27.48;71.52;100065.28;1831604;77;20864;-86
2021/06/23 04:27:59;;;;;;;21.93;15.13;;;;;;;27.55;71.35;100063.13;1830114;77;21061;-86
2021/06/23 04:30:25;;;;;;;21.33;15.83;;;;;;;27.73;71.43;100062.30;1829054;77;21166;-86
2021/06/23 04:32:51;;;;;;;19.92;15.32;;;;;;;27.88;70.93;100069.62;1817763;77;21239;-84
2021/06/23 04:35:17;;;;;;;22.02;15.40;;;;;;;27.98;70.26;100066.10;1809690;77;20931;-86
2021/06/23 04:37:43;;;;;;;21.40;16.70;;;;;;;28.09;70.54;100067.17;1808365;77;20907;-85
2021/06/23 04:40:12;;;;;;;22.07;15.65;;;;;;;28.06;69.52;100062.29;1835223;77;21129;-85
2021/06/23 04:42:39;;;;;;;19.55;14.65;;;;;;;28.20;68.95;100065.25;1825663;77;21069;-85
2021/06/23 04:45:07;;;;;;;21.12;15.65;;;;;;;28.09;68.79;100070.41;1834898;77;28240;-86
2021/06/23 04:47:34;;;;;;;25.75;16.37;;;;;;;29.08;65.85;100067.02;1820831;77;21062;-86
2021/06/23 04:50:00;;;;;;;;;;;;;;;29.03;66.00;100066.27;1832338;77;21054;-86
2021/06/23 04:52:26;;;;;;;27.20;19.53;;;;;;;28.16;69.09;100073.66;1803449;77;25653;-87
2021/06/23 04:54:51;;;;;;;28.23;20.10;;;;;;;28.19;69.03;100066.32;1823836;77;21658;-86
2021/06/23 04:57:17;;;;;;;23.90;19.20;;;;;;;28.12;69.33;100059.00;1818371;77;20951;-93
2021/06/23 04:59:44;;;;;;;24.57;19.35;;;;;;;27.98;69.54;100056.05;1808853;77;20990;-86
2021/06/23 05:02:09;;;;;;;25.60;18.77;;;;;;;28.12;69.47;100052.21;1820333;77;21050;-87
2021/06/23 05:04:36;;;;;;;24.35;18.80;;;;;;;28.14;69.07;100063.63;1814161;77;21929;-86
2021/06/23 05:07:04;;;;;;;22.42;18.00;;;;;;;28.09;68.49;100062.27;1804503;77;20962;-86
2021/06/23 05:09:30;;;;;;;24.55;18.67;;;;;;;28.28;68.00;100070.10;1825040;77;21299;-86
2021/06/23 05:11:56;;;;;;;25.20;18.43;;;;;;;28.04;68.70;100085.36;1824733;77;21501;-86
2021/06/23 05:14:22;;;;;;;21.87;16.83;;;;;;;28.04;68.70;100085.36;1830301;77;21737;-85
2021/06/23 05:16:50;;;;;;;22.52;16.75;;;;;;;27.99;67.71;100095.69;1807601;77;21662;-86
2021/06/23 05:19:15;;;;;;;24.30;16.67;;;;;;;27.78;67.85;100090.80;1830897;76;20939;-86
2021/06/23 05:21:41;;;;;;;21.50;15.60;;;;;;;28.10;67.47;100086.42;1816321;77;20872;-85
2021/06/23 05:24:08;;;;;;;20.20;15.08;;;;;;;28.12;67.77;100086.15;1818608;77;21248;-86
2021/06/23 05:26:33;;;;;;;20.80;16.48;;;;;;;27.88;66.87;100082.64;1821246;77;21189;-86
2021/06/23 05:28:59;;;;;;;29.25;20.30;;;;;;;27.77;68.83;100093.24;1812953;77;21983;-86
2021/06/23 05:31:25;;;;;;;29.70;21.57;;;;;;;27.68;70.13;100100.30;1838866;77;25776;-86
2021/06/23 05:33:51;;;;;;;33.42;23.18;;;;;;;27.61;70.92;100097.03;1826005;77;21009;-87
2021/06/23 05:36:19;;;;;;;34.53;23.20;;;;;;;27.66;71.25;100102.48;1834932;77;21886;-87
2021/06/23 05:38:45;;;;;;;30.35;22.37;;;;;;;27.20;72.75;100098.58;1827810;77;20939;-88
2021/06/23 05:41:11;;;;;;;33.60;23.30;;;;;;;27.72;70.47;100102.75;1808126;78;21125;-86
2021/06/23 05:43:36;;;;;;;28.47;20.72;;;;;;;27.42;71.31;100102.98;1814275;77;20863;-87
2021/06/23 05:46:02;;;;;;;30.97;22.70;;;;;;;27.63;70.44;100107.09;1839017;77;21044;-86
2021/06/23 05:48:28;;;;;;;32.20;21.95;;;;;;;27.42;71.12;100098.11;1817969;77;21020;-85
2021/06/23 05:50:54;;;;;;;26.37;19.95;;;;;;;27.67;70.67;100095.42;1808689;77;20946;-86
2021/06/23 05:53:19;;;;;;;25.90;19.85;;;;;;;27.67;70.67;100095.42;1817712;77;21937;-86
2021/06/23 05:55:45;;;;;;;27.50;21.27;;;;;;;27.70;70.91;100095.41;1818614;77;20947;-85
2021/06/23 05:58:11;;;;;;;23.98;19.62;;;;;;;27.68;70.55;100100.30;1817170;77;20969;-86
2021/06/23 06:00:37;;;;;;;24.67;20.12;;;;;;;27.77;70.37;100098.67;1830771;77;20876;-84
2021/06/23 06:03:04;;;;;;;27.00;20.68;;;;;;;27.68;70.97;100105.72;1826293;77;21008;-85
2021/06/23 06:05:30;;;;;;;26.52;19.02;;;;;;;27.97;69.76;100106.53;1804590;77;21132;-85
2021/06/23 06:07:55;;;;;;;23.50;17.87;;;;;;;27.96;69.06;100103.57;1821624;77;20951;-86
2021/06/23 06:10:21;;;;;;;24.45;18.05;;;;;;;28.20;67.59;100104.62;1829423;77;20871;-90
2021/06/23 06:12:47;;;;;;;23.47;17.63;;;;;;;28.20;67.59;100104.62;1812140;77;20938;-87
2021/06/23 06:15:14;;;;;;;23.85;17.82;;;;;;;28.03;67.78;100112.23;1832516;77;21049;-86
2021/06/23 06:17:40;;;;;;;26.23;18.20;;;;;;;28.29;67.27;100119.27;1802014;77;21226;-86
2021/06/23 06:20:07;;;;;;;27.05;20.50;;;;;;;28.18;67.86;100114.92;1806916;77;20855;-86
2021/06/23 06:22:32;;;;;;;;;;;;;;;28.04;68.47;100122.02;1805755;77;21093;-85
2021/06/23 06:24:59;;;;;;;32.73;18.53;;;;;;;28.36;67.91;100127.67;1820736;77;20203;-86
2021/06/23 06:27:25;;;;;;;28.75;21.05;;;;;;;28.48;66.88;100132.25;1807648;77;21211;-85
2021/06/23 06:29:50;;;;;;;28.92;21.20;;;;;;;28.24;67.25;100135.55;1820069;77;22043;-85
2021/06/23 06:32:16;;;;;;;30.05;22.20;;;;;;;28.52;66.61;100136.02;1830567;77;20939;-85
2021/06/23 06:34:42;;;;;;;33.98;23.32;;;;;;;28.37;66.82;100137.42;1813281;77;22148;-84
2021/06/23 06:37:07;;;;;;;29.63;22.90;;;;;;;28.37;66.90;100133.34;1816307;77;21895;-83
2021/06/23 06:39:33;;;;;;;31.87;23.80;;;;;;;28.32;66.81;100133.38;1819111;77;20967;-83
2021/06/23 06:41:59;;;;;;;29.72;22.95;;;;;;;28.48;67.01;100132.25;1824615;77;22006;-85
2021/06/23 06:44:29;;;;;;;28.87;22.62;;;;;;;28.61;66.34;100134.39;1813251;77;20869;-84
2021/06/23 06:46:52;;;;;;;32.50;23.50;;;;;;;28.34;67.03;100133.90;1820960;77;21007;-83
2021/06/23 06:49:18;;;;;;;29.40;23.57;;;;;;;28.56;66.98;100142.55;1831655;77;21017;-84
2021/06/23 06:51:44;;;;;;;27.17;22.42;;;;;;;28.51;67.15;100152.08;1825366;77;20876;-87
2021/06/23 06:54:09;;;;;;;30.60;23.12;;;;;;;28.67;66.93;100147.43;1801557;77;21147;-84
2021/06/23 06:56:35;;;;;;;28.55;21.93;;;;;;;29.03;66.07;100150.55;1814944;77;20888;-85
2021/06/23 06:59:01;;;;;;;26.23;21.37;;;;;;;29.00;64.95;100151.36;1818928;77;21019;-85
2021/06/23 07:01:27;;;;;;;28.32;21.62;;;;;;;29.22;63.88;100151.55;1818702;77;21059;-85
2021/06/23 07:03:52;;;;;;;26.52;21.00;;;;;;;29.07;64.73;100146.99;1825710;77;21107;-86
2021/06/23 07:06:18;;;;;;;37.93;23.30;;;;;;;29.16;64.71;100151.27;1822903;77;21160;-86
2021/06/23 07:08:44;;;;;;;28.47;21.80;;;;;;;29.40;64.03;100141.09;1820248;77;20892;-82
2021/06/23 07:11:10;;;;;;;32.98;22.60;;;;;;;29.07;65.61;100146.16;1810356;77;20966;-82
2021/06/23 07:13:35;;;;;;;27.27;20.62;;;;;;;29.15;64.84;100155.11;1820010;77;20927;-89
2021/06/23 07:16:01;;;;;;;24.57;19.82;;;;;;;29.30;64.45;100156.41;1818215;77;20867;-84
2021/06/23 07:18:27;;;;;;;27.32;19.82;;;;;;;29.99;62.27;100159.75;1818870;77;21054;-82
2021/06/23 07:20:53;;;;;;;24.63;19.25;;;;;;;30.22;61.62;100141.27;1807421;77;20876;-84
2021/06/23 07:23:18;;;;;;;26.52;20.17;;;;;;;30.28;61.30;100144.73;1822610;77;20852;-85
2021/06/23 07:25:44;;;;;;;27.60;19.73;;;;;;;30.05;61.21;100151.23;1821992;77;21058;-84
2021/06/23 07:28:12;;;;;;;29.18;20.90;;;;;;;29.51;63.31;100156.28;1820798;77;20991;-84
2021/06/23 07:30:42;;;;;;;26.30;20.82;;;;;;;29.45;63.03;100160.13;1812959;77;21034;-83
2021/06/23 07:33:08;;;;;;;25.20;19.80;;;;;;;29.51;63.08;100161.72;1819568;77;21021;-86
2021/06/23 07:38:18;;;;;;;28.02;21.57;;;;;;;29.70;63.12;100161.84;1807344;77;21529;-86
2021/06/23 07:43:13;;;;;;;30.00;22.42;;;;;;;29.10;64.27;100171.43;1795540;77;21029;-84
2021/06/23 07:45:43;;;;;;;29.12;20.43;;;;;;;29.02;64.73;100172.83;1808656;77;21097;-85
2021/06/23 07:48:07;;;;;;;31.27;22.42;;;;;;;29.25;64.18;100175.47;1823411;77;20986;-82
2021/06/23 07:50:37;;;;;;;28.35;20.20;;;;;;;29.49;63.35;100168.80;1812719;77;21289;-84
2021/06/23 08:09:14;;;;;;;27.05;20.15;;;;;;;29.63;63.23;100175.78;1813411;77;21030;-84
2021/06/23 08:11:36;;;;;;;26.77;18.48;;;;;;;29.77;62.63;100174.59;1827749;77;21816;-85
2021/06/23 08:14:03;;;;;;;27.45;18.42;;;;;;;29.87;62.72;100169.64;1803118;77;20959;-84
2021/06/23 08:16:28;;;;;;;23.55;19.05;;;;;;;29.97;62.04;100166.84;1817412;76;21022;-85
2021/06/23 08:18:54;;;;;;;25.45;19.15;;;;;;;29.93;61.77;100160.89;1822516;77;21076;-84
2021/06/23 08:21:20;;;;;;;21.68;16.80;;;;;;;29.57;62.75;100179.64;1816704;77;22026;-84
2021/06/23 08:23:45;;;;;;;22.77;16.90;;;;;;;30.17;61.29;100178.63;1813459;77;25320;-87
2021/06/23 08:26:11;;;;;;;20.40;16.75;;;;;;;29.97;61.53;100185.91;1810394;77;20916;-84
2021/06/23 08:28:37;;;;;;;25.88;18.27;;;;;;;30.26;60.91;100187.81;1809877;77;21330;-83
2021/06/23 08:31:03;;;;;;;23.70;17.15;;;;;;;29.87;60.91;100188.70;1816781;77;20888;-84
2021/06/23 08:33:28;;;;;;;20.57;16.45;;;;;;;29.91;61.00;100184.32;1809675;77;21137;-83
2021/06/23 08:35:54;;;;;;;21.12;16.35;;;;;;;29.96;61.05;100188.91;1813162;77;21347;-83
2021/06/23 08:38:21;;;;;;;19.12;15.83;;;;;;;30.03;60.58;100195.66;1807030;77;25272;-83
2021/06/23 08:40:47;;;;;;;20.40;15.15;;;;;;;30.55;59.11;100197.92;1812929;77;21081;-84
2021/06/23 08:43:15;;;;;;;18.02;14.10;;;;;;;30.72;58.86;100187.36;1801605;77;20875;-84
2021/06/23 08:45:41;;;;;;;18.25;14.98;;;;;;;30.51;59.25;100198.23;1819278;77;21155;-87
2021/06/23 08:48:09;;;;;;;22.03;15.57;;;;;;;30.46;59.27;100195.56;1808941;77;20867;-84
2021/06/23 08:50:34;;;;;;;19.12;14.85;;;;;;;30.53;59.39;100208.28;1821593;77;21050;-83
2021/06/23 08:53:00;;;;;;;20.30;14.63;;;;;;;30.62;58.54;100214.72;1802935;77;20915;-83
2021/06/23 08:55:26;;;;;;;17.07;14.27;;;;;;;30.57;58.46;100214.79;1825723;77;21603;-83
2021/06/23 08:57:52;;;;;;;17.82;14.18;;;;;;;30.52;59.10;100224.39;1802005;77;21295;-84
2021/06/23 09:00:19;;;;;;;18.27;14.73;;;;;;;30.31;59.27;100223.17;1812809;77;21238;-84
2021/06/23 09:02:45;;;;;;;20.82;13.88;;;;;;;30.17;59.53;100222.22;1806693;77;21223;-84
2021/06/23 09:05:13;;;;;;;13.90;12.17;;;;;;;30.20;60.03;100221.09;1815192;77;21632;-83
2021/06/23 09:07:59;;;;;;;18.25;14.28;;;;;;;30.45;59.42;100222.54;1838073;77;21062;-83
2021/06/23 09:10:30;;;;;;;19.32;13.38;;;;;;;30.21;58.91;100231.45;1831831;76;21530;-83
2021/06/23 09:13:16;;;;;;;15.50;12.45;;;;;;;30.59;58.33;100237.11;1829650;78;20968;-84
2021/06/23 09:16:02;;;;;;;17.52;13.10;;;;;;;30.58;58.51;100232.78;1819893;77;20980;-84
2021/06/23 09:18:40;;;;;;;18.30;13.90;;;;;;;30.48;58.25;100245.13;1826180;77;21011;-83
2021/06/23 09:21:18;;;;;;;17.40;12.73;;;;;;;30.15;59.22;100247.58;1832771;77;21062;-83
2021/06/23 09:23:50;;;;;;;16.35;12.75;;;;;;;30.54;58.22;100243.42;1827891;77;21938;-82
2021/06/23 09:26:37;;;;;;;16.95;12.65;;;;;;;30.31;58.65;100244.16;1832265;77;20964;-84
2021/06/23 09:29:17;;;;;;;16.42;12.37;;;;;;;30.58;58.41;100246.41;1834120;77;21612;-83
2021/06/23 09:32:03;;;;;;;16.45;12.13;;;;;;;30.92;57.39;100246.84;1833077;77;21149;-83
2021/06/23 09:34:45;;;;;;;14.05;11.68;;;;;;;30.88;56.94;100249.90;1837845;77;21791;-82
2021/06/23 09:37:31;;;;;;;17.87;11.90;;;;;;;30.88;56.94;100249.90;1827079;77;21466;-84
2021/06/23 09:40:21;;;;;;;16.80;11.20;;;;;;;30.79;57.59;100246.98;1825231;77;21012;-83
2021/06/23 09:42:56;;;;;;;19.23;12.75;;;;;;;31.03;58.37;100252.48;1836924;77;21696;-83
2021/06/23 09:45:22;;;;;;;15.38;11.18;;;;;;;31.09;59.26;100241.77;1830880;77;21210;-87
2021/06/23 09:47:49;;;;;;;16.13;11.97;;;;;;;31.17;58.32;100252.59;1835168;77;21390;-81
2021/06/23 09:50:23;;;;;;;18.00;12.88;;;;;;;31.11;59.20;100263.30;1833232;77;21161;-84
2021/06/23 09:53:08;;;;;;;14.25;11.25;;;;;;;31.14;58.74;100254.54;1820066;77;21023;-85
2021/06/23 09:55:40;;;;;;;20.40;13.05;;;;;;;31.33;57.94;100257.30;1791717;77;21057;-84
2021/06/23 09:58:13;;;;;;;21.05;14.03;;;;;;;31.56;57.76;100241.20;1819924;77;21050;-83
2021/06/23 10:01:06;;;;;;;22.35;13.98;;;;;;;31.65;56.91;100246.23;1825655;77;20927;-84
2021/06/23 10:03:34;;;;;;;20.97;14.58;;;;;;;31.24;58.05;100245.41;1829304;77;21254;-84
2021/06/23 10:06:29;;;;;;;19.57;14.68;;;;;;;31.36;58.09;100249.89;1817953;77;20959;-84
2021/06/23 10:09:14;;;;;;;21.27;15.68;;;;;;;31.33;57.59;100262.19;1831496;77;21098;-82
2021/06/23 10:11:41;;;;;;;22.05;15.70;;;;;;;31.01;58.40;100262.85;1816991;77;21541;-83
2021/06/23 10:14:07;;;;;;;21.73;13.75;;;;;;;31.07;58.32;100258.96;1833764;77;21042;-84
2021/06/23 10:16:34;;;;;;;21.48;14.43;;;;;;;31.20;58.65;100259.36;1836009;77;21152;-85
2021/06/23 10:19:07;;;;;;;20.90;15.03;;;;;;;31.35;58.02;100267.36;1831919;77;37367;-85
2021/06/23 10:21:34;;;;;;;23.50;17.53;;;;;;;30.91;58.85;100269.77;1834628;77;20955;-85
2021/06/23 10:24:00;;;;;;;21.25;14.45;;;;;;;30.50;60.00;100259.27;1825018;77;21022;-85
2021/06/23 10:26:27;;;;;;;22.57;16.23;;;;;;;31.00;59.31;100269.43;1826400;77;21191;-83
2021/06/23 10:28:53;;;;;;;18.50;13.62;;;;;;;30.87;59.09;100272.80;1817518;77;21989;-82
2021/06/23 10:31:22;;;;;;;21.73;16.50;;;;;;;30.70;59.91;100261.82;1806658;77;20978;-84
2021/06/23 10:33:47;;;;;;;20.55;15.98;;;;;;;30.65;59.98;100265.94;1830069;77;21157;-85
2021/06/23 10:36:13;;;;;;;27.43;17.30;;;;;;;30.58;59.86;100277.19;1830372;77;20881;-85
2021/06/23 10:38:40;;;;;;;27.57;18.43;;;;;;;30.45;60.08;100286.02;1819721;77;20879;-85
2021/06/23 10:41:06;;;;;;;25.00;17.50;;;;;;;30.65;59.98;100278.77;1835041;77;21136;-84
2021/06/23 10:43:31;;;;;;;21.82;16.10;;;;;;;30.25;61.07;100293.78;1830768;77;21054;-84
2021/06/23 10:45:57;;;;;;;24.03;17.50;;;;;;;30.62;60.30;100278.78;1832372;77;20836;-86
2021/06/23 10:48:23;;;;;;;24.60;17.57;;;;;;;29.98;61.30;100295.63;1829595;77;26855;-84
2021/06/23 10:50:49;;;;;;;22.93;17.50;;;;;;;29.97;61.67;100288.55;1833586;77;26137;-85
2021/06/23 10:53:36;;;;;;;23.03;17.47;;;;;;;30.41;60.54;100288.52;1810151;77;25820;-84
2021/06/23 10:56:04;;;;;;;24.77;17.57;;;;;;;30.68;59.81;100281.72;1834109;77;21055;-85
2021/06/23 10:58:35;;;;;;;21.57;16.48;;;;;;;30.62;59.83;100293.77;1838201;77;21815;-85
2021/06/23 11:01:12;;;;;;;24.63;17.23;;;;;;;30.44;59.87;100284.41;1837358;77;21632;-85
2021/06/23 11:04:02;;;;;;;26.77;17.73;;;;;;;30.67;59.76;100282.84;1834351;77;21061;-84
2021/06/23 11:06:41;;;;;;;23.00;16.30;;;;;;;30.77;58.85;100266.36;1815775;77;21241;-84
2021/06/23 11:09:28;;;;;;;25.92;17.48;;;;;;;30.77;58.85;100266.36;1785504;78;21314;-86
2021/06/23 11:11:55;;;;;;;20.00;15.65;;;;;;;30.91;59.22;100265.69;1768333;80;21071;-86
2021/06/23 11:14:21;;;;;;;20.70;15.93;;;;;;;31.21;58.60;100271.91;1763635;80;21166;-83
2021/06/23 11:17:08;;;;;;;22.70;14.80;;;;;;;30.99;58.90;100263.70;1768171;80;21019;-86
2021/06/23 11:19:38;;;;;;;;;;;;;;;31.28;58.49;100261.46;1765974;80;21975;-84
2021/06/23 11:22:13;;;;;;;21.27;13.88;;;;;;;31.31;58.29;100263.61;1757921;80;20339;-87
2021/06/23 11:24:39;;;;;;;20.05;14.00;;;;;;;31.22;58.26;100244.34;1768744;80;21027;-81
2021/06/23 11:27:05;;;;;;;23.97;13.63;;;;;;;31.62;57.33;100249.55;1761929;80;20954;-84
2021/06/23 11:29:31;;;;;;;19.00;12.13;;;;;;;31.62;57.33;100249.55;1695375;80;20958;-83
2021/06/23 11:32:03;;;;;;;20.37;13.47;;;;;;;31.88;55.80;100250.55;1762557;80;22097;-84
2021/06/23 11:34:40;;;;;;;16.35;12.88;;;;;;;31.32;57.17;100246.11;1766878;80;21019;-82
2021/06/23 11:37:08;;;;;;;17.00;12.03;;;;;;;31.65;56.24;100238.04;1765546;80;20932;-84
2021/06/23 11:39:35;;;;;;;20.52;12.37;;;;;;;31.82;56.15;100231.52;1760169;80;21027;-85